Time;durP1;ratioP1;P1;durP2;ratioP2;P2;SDS_P1;SDS_P2;PMS_P1;PMS_P2;Temp;Humidity;BMP_temperature;BMP_pressure;BME280_temperature;BME280_humidity;BME280_pressure;Samples;Min_cycle;Max_cycle;Signal;HPM_P1;HPM_P2
2023/03/15 00:01:09;;;;;;;0.00;0.00;;;;;;;4.63;60.88;100837.59;7350511;19;20504;-62
2023/03/15 00:03:36;;;;;;;0.00;0.00;;;;;;;4.59;61.41;100851.38;7351611;19;20333;-62
2023/03/15 00:06:02;;;;;;;0.00;0.00;;;;;;;4.56;61.23;100856.50;7349990;19;20447;-61
2023/03/15 00:08:28;;;;;;;0.00;0.00;;;;;;;4.42;61.18;100841.81;7350923;19;20015;-62
2023/03/15 00:10:53;;;;;;;0.00;0.00;;;;;;;4.51;61.24;100858.22;7349329;19;20014;-62
2023/03/15 00:13:19;;;;;;;0.00;0.00;;;;;;;4.45;61.45;100858.19;7346961;19;20022;-62
2023/03/15 00:15:47;;;;;;;0.00;0.00;;;;;;;4.46;61.71;100872.84;7348376;19;20734;-61
2023/03/15 00:18:12;;;;;;;0.00;0.00;;;;;;;4.27;61.77;100854.66;7347840;19;20017;-62
2023/03/15 00:20:38;;;;;;;0.00;0.00;;;;;;;4.40;61.96;100882.28;7351772;19;20010;-62
2023/03/15 00:23:03;;;;;;;0.00;0.00;;;;;;;4.39;61.74;100895.22;7346375;19;20019;-61
2023/03/15 00:25:29;;;;;;;0.00;0.00;;;;;;;4.37;61.81;100884.88;7350676;19;20010;-62
2023/03/15 00:27:54;;;;;;;0.00;0.00;;;;;;;4.35;61.63;100878.81;7349929;19;20851;-61
2023/03/15 00:30:20;;;;;;;0.00;0.00;;;;;;;4.32;62.29;100863.31;7351788;19;20046;-62
2023/03/15 00:32:45;;;;;;;0.00;0.00;;;;;;;4.31;62.25;100856.41;7348249;19;20589;-62
2023/03/15 00:35:11;;;;;;;0.00;0.00;;;;;;;4.30;62.56;100861.56;7345649;19;20010;-61
2023/03/15 00:37:37;;;;;;;0.00;0.00;;;;;;;4.29;62.51;100857.25;7339607;19;20025;-62
2023/03/15 00:40:05;;;;;;;0.00;0.00;;;;;;;4.27;63.02;100848.63;7347116;19;20010;-61
2023/03/15 00:42:32;;;;;;;0.00;0.00;;;;;;;4.26;63.45;100841.72;7348101;19;20026;-60
2023/03/15 00:44:58;;;;;;;0.00;0.00;;;;;;;4.24;63.56;100839.13;7349654;19;20015;-62
2023/03/15 00:47:24;;;;;;;0.00;0.00;;;;;;;4.23;63.87;100837.41;7345718;19;20022;-62
2023/03/15 00:49:49;;;;;;;0.00;0.00;;;;;;;4.20;63.58;100839.09;7351261;19;20011;-61
2023/03/15 00:52:16;;;;;;;0.00;0.00;;;;;;;4.19;64.07;100840.81;7349017;19;20052;-62
2023/03/15 00:54:42;;;;;;;0.00;0.00;;;;;;;4.06;63.82;100826.13;7348564;19;20557;-62
2023/03/15 00:57:08;;;;;;;0.00;0.00;;;;;;;4.16;63.92;100840.81;7349069;19;21031;-62
2023/03/15 00:59:34;;;;;;;0.08;0.08;;;;;;;4.14;63.96;100837.34;7351329;19;20007;-61
2023/03/15 01:02:05;;;;;;;0.03;0.03;;;;;;;4.11;63.67;100837.34;7349470;19;20010;-62
2023/03/15 01:04:31;;;;;;;0.10;0.10;;;;;;;4.10;63.52;100843.34;7348700;19;20015;-61
2023/03/15 01:06:57;;;;;;;0.00;0.00;;;;;;;4.08;63.73;100842.50;7350747;19;20101;-62
2023/03/15 01:09:23;;;;;;;0.00;0.00;;;;;;;4.05;63.55;100847.63;7350450;19;20044;-62
2023/03/15 01:11:48;;;;;;;0.00;0.00;;;;;;;4.02;63.61;100858.81;7350844;19;20014;-62
2023/03/15 01:14:14;;;;;;;0.08;0.08;;;;;;;4.00;64.06;100860.50;7350172;19;20082;-62
2023/03/15 01:16:39;;;;;;;0.10;0.10;;;;;;;3.99;64.37;100860.50;7348804;19;20031;-62
2023/03/15 01:19:04;;;;;;;0.08;0.08;;;;;;;3.98;64.25;100861.38;7347980;19;20011;-62
2023/03/15 01:21:30;;;;;;;0.10;0.10;;;;;;;3.96;64.46;100868.25;7352358;19;20014;-62
2023/03/15 01:23:56;;;;;;;0.00;0.00;;;;;;;3.95;64.65;100861.34;7350945;19;20015;-62
2023/03/15 01:26:21;;;;;;;0.00;0.00;;;;;;;3.89;65.03;100852.69;7348909;19;20875;-62
2023/03/15 01:28:47;;;;;;;0.00;0.00;;;;;;;3.92;64.62;100856.16;7350667;19;20018;-62
2023/03/15 01:31:24;;;;;;;0.00;0.00;;;;;;;3.92;64.56;100853.59;7354253;19;20686;-61
2023/03/15 01:33:50;;;;;;;0.00;0.00;;;;;;;3.89;65.04;100852.69;7353823;19;20017;-62
2023/03/15 01:36:16;;;;;;;0.00;0.00;;;;;;;3.84;64.99;100850.94;7348499;19;21701;-62
2023/03/15 01:38:41;;;;;;;0.00;0.00;;;;;;;3.86;64.73;100852.69;7349390;19;20121;-62
2023/03/15 01:41:07;;;;;;;0.00;0.00;;;;;;;3.85;65.27;100848.38;7352265;19;20699;-62
2023/03/15 01:43:32;;;;;;;0.00;0.00;;;;;;;3.83;64.66;100851.78;7350329;19;20031;-62
2023/03/15 01:46:01;;;;;;;0.00;0.00;;;;;;;3.82;65.08;100845.78;7349427;19;20009;-62
2023/03/15 01:48:43;;;;;;;0.00;0.00;;;;;;;3.80;64.77;100837.16;7349826;19;20021;-62
2023/03/15 01:51:40;;;;;;;0.05;0.05;;;;;;;3.76;64.67;100831.94;7351073;19;20377;-62
2023/03/15 01:54:11;;;;;;;0.00;0.00;;;;;;;3.77;65.09;100846.59;7249600;19;2004277;-62
2023/03/15 01:56:43;;;;;;;0.00;0.00;;;;;;;3.64;65.29;100836.16;7349329;19;20718;-62
2023/03/15 01:59:19;;;;;;;0.10;0.10;;;;;;;3.73;65.05;100855.16;7350446;19;20014;-62
2023/03/15 02:01:49;;;;;;;0.00;0.00;;;;;;;3.71;65.26;100850.00;7348957;19;20019;-62
2023/03/15 02:04:23;;;;;;;0.00;0.00;;;;;;;3.66;65.71;100837.91;7349573;19;20714;-61
2023/03/15 02:06:49;;;;;;;0.00;0.00;;;;;;;3.69;65.32;100859.44;7348072;19;20117;-62
2023/03/15 02:09:17;;;;;;;0.00;0.00;;;;;;;3.69;65.95;100859.44;7351427;19;21516;-62
2023/03/15 02:11:43;;;;;;;0.00;0.00;;;;;;;3.68;65.70;100849.97;7351606;19;20010;-62
2023/03/15 02:14:10;;;;;;;0.00;0.00;;;;;;;3.69;65.88;100849.09;7350106;19;20110;-62
2023/03/15 02:16:37;;;;;;;0.00;0.00;;;;;;;3.68;65.69;100844.78;7349116;19;20006;-61
2023/03/15 02:19:05;;;;;;;0.00;0.00;;;;;;;3.68;66.04;100847.38;7342105;19;20073;-59
2023/03/15 02:21:36;;;;;;;0.00;0.00;;;;;;;3.69;65.89;100840.50;7351051;19;20768;-62
2023/03/15 02:24:45;;;;;;;0.10;0.10;;;;;;;3.70;65.39;100845.69;7350918;19;20528;-62
2023/03/15 02:27:11;;;;;;;0.00;0.00;;;;;;;3.69;65.97;100843.94;7244174;19;2004384;-62
2023/03/15 02:29:36;;;;;;;0.00;0.00;;;;;;;3.68;66.05;100841.34;7351550;19;20018;-62
2023/03/15 02:32:03;;;;;;;0.10;0.10;;;;;;;3.67;66.01;100837.03;7345061;19;20524;-63
2023/03/15 02:34:30;;;;;;;0.10;0.10;;;;;;;3.68;65.56;100834.47;7351284;19;20014;-62
2023/03/15 02:36:56;;;;;;;0.00;0.00;;;;;;;3.57;65.92;100812.88;7351592;19;20465;-62
2023/03/15 02:39:22;;;;;;;0.10;0.10;;;;;;;3.71;65.63;100821.59;7350749;19;22459;-62
2023/03/15 02:41:53;;;;;;;0.00;0.00;;;;;;;3.73;65.38;100814.69;7350180;19;20019;-62
2023/03/15 02:44:27;;;;;;;0.10;0.10;;;;;;;3.73;65.64;100812.13;7351696;19;20039;-62
2023/03/15 02:46:56;;;;;;;0.00;0.00;;;;;;;3.64;65.76;100792.25;7347663;19;20021;-63
2023/03/15 02:49:25;;;;;;;0.00;0.00;;;;;;;3.75;65.61;100802.69;7349790;19;20010;-62
2023/03/15 02:51:51;;;;;;;0.00;0.00;;;;;;;3.77;66.06;100810.44;7351199;19;20026;-62
2023/03/15 02:54:16;;;;;;;0.10;0.10;;;;;;;3.78;66.08;100800.09;7356163;19;20863;-62
2023/03/15 02:56:42;;;;;;;0.05;0.05;;;;;;;3.80;66.43;100794.94;7355894;19;20029;-61
2023/03/15 02:59:07;;;;;;;0.00;0.00;;;;;;;3.29;66.31;100713.69;7345981;19;21585;-62
2023/03/15 03:01:35;;;;;;;0.00;0.00;;;;;;;3.83;66.57;100788.06;7358101;19;20037;-62
2023/03/15 03:04:02;;;;;;;0.10;0.10;;;;;;;3.85;66.60;100788.06;7358796;19;20762;-63
2023/03/15 03:06:27;;;;;;;0.10;0.10;;;;;;;3.87;66.61;100782.09;7357827;19;20163;-62
2023/03/15 03:08:53;;;;;;;0.08;0.08;;;;;;;3.89;66.24;100795.84;7358997;19;20494;-62
2023/03/15 03:11:18;;;;;;;0.10;0.10;;;;;;;3.90;66.22;100792.44;7358319;19;20163;-63
2023/03/15 03:13:44;;;;;;;0.00;0.00;;;;;;;3.93;66.41;100790.72;7358720;19;20089;-63
2023/03/15 03:16:10;;;;;;;0.00;0.00;;;;;;;3.95;66.29;100786.41;7358213;19;20010;-62
2023/03/15 03:18:36;;;;;;;0.00;0.00;;;;;;;3.96;66.58;100780.41;7348686;19;20038;-62
2023/03/15 03:21:03;;;;;;;0.00;0.00;;;;;;;3.99;66.51;100780.41;7356064;19;20541;-62
2023/03/15 03:23:31;;;;;;;0.10;0.10;;;;;;;4.01;66.02;100783.88;7344587;19;20755;-62
2023/03/15 03:25:57;;;;;;;0.10;0.10;;;;;;;4.01;66.26;100774.41;7356236;19;20043;-63
2023/03/15 03:28:24;;;;;;;0.05;0.05;;;;;;;4.04;66.43;100773.56;7353713;19;20391;-63
2023/03/15 03:30:52;;;;;;;0.10;0.10;;;;;;;4.04;66.23;100768.38;7358201;19;20018;-62
2023/03/15 03:33:17;;;;;;;0.00;0.00;;;;;;;4.05;66.56;100760.63;7355896;19;21607;-62
2023/03/15 03:35:43;;;;;;;0.10;0.10;;;;;;;4.06;66.28;100758.94;7360271;19;20018;-62
2023/03/15 03:38:10;;;;;;;0.08;0.08;;;;;;;4.07;66.22;100752.91;7355537;19;21328;-62
2023/03/15 03:40:36;;;;;;;0.10;0.10;;;;;;;4.09;66.16;100756.34;7359188;19;20014;-62
2023/03/15 03:43:02;;;;;;;0.00;0.00;;;;;;;4.09;66.24;100756.34;7354240;19;20104;-60
2023/03/15 03:45:27;;;;;;;0.00;0.00;;;;;;;4.07;66.08;100760.66;7360145;19;20764;-62
2023/03/15 03:47:53;;;;;;;0.00;0.00;;;;;;;4.10;66.29;100753.75;7357231;19;20127;-62
2023/03/15 03:50:18;;;;;;;0.00;0.00;;;;;;;4.12;66.32;100756.38;7357226;19;20017;-62
2023/03/15 03:52:43;;;;;;;0.00;0.00;;;;;;;4.12;66.35;100756.38;7353486;19;20792;-62
2023/03/15 03:55:15;;;;;;;0.00;0.00;;;;;;;4.13;66.21;100758.97;7356859;19;20576;-62
2023/03/15 03:57:41;;;;;;;0.10;0.10;;;;;;;4.13;66.51;100768.44;7347766;19;20017;-63
2023/03/15 04:00:10;;;;;;;0.00;0.00;;;;;;;4.14;66.46;100763.25;7352761;19;20025;-62
2023/03/15 04:02:36;;;;;;;0.00;0.00;;;;;;;4.14;66.10;100752.94;7353041;19;20019;-62
2023/03/15 04:05:02;;;;;;;0.00;0.00;;;;;;;4.12;65.97;100746.91;7336068;19;20021;-62
2023/03/15 04:07:27;;;;;;;0.10;0.10;;;;;;;4.13;65.90;100747.75;7352568;19;20018;-62
2023/03/15 04:09:52;;;;;;;0.00;0.00;;;;;;;4.13;66.24;100745.19;7357389;19;20017;-62
2023/03/15 04:12:18;;;;;;;0.10;0.10;;;;;;;4.13;65.95;100748.63;7357720;19;20002;-62
2023/03/15 04:14:43;;;;;;;0.00;0.00;;;;;;;4.09;65.96;100736.53;7353293;19;20015;-62
2023/03/15 04:17:09;;;;;;;0.00;0.00;;;;;;;4.13;66.35;100742.59;7356533;19;20510;-62
2023/03/15 04:19:35;;;;;;;0.10;0.10;;;;;;;4.02;66.34;100734.78;7337199;19;19998;-62
2023/03/15 04:22:05;;;;;;;0.10;0.10;;;;;;;4.12;66.43;100753.78;7356404;19;20106;-61
2023/03/15 04:24:33;;;;;;;0.10;0.10;;;;;;;4.13;66.48;100752.94;7357771;19;20015;-62
2023/03/15 04:26:58;;;;;;;;;;;;;;;4.16;65.59;100747.78;7358723;19;20019;-63
2023/03/15 04:29:24;;;;;;;0.00;0.00;;;;;;;4.13;66.38;100752.94;7358989;19;19947;-62
2023/03/15 04:31:49;;;;;;;0.00;0.00;;;;;;;4.12;66.00;100748.63;7356740;19;20022;-63
2023/03/15 04:34:14;;;;;;;0.10;0.10;;;;;;;4.10;66.28;100742.56;7356398;19;20463;-63
2023/03/15 04:36:41;;;;;;;0.00;0.00;;;;;;;4.10;66.32;100747.72;7360694;19;20355;-62
2023/03/15 04:39:07;;;;;;;0.03;0.03;;;;;;;4.09;66.77;100735.69;7358385;19;20019;-62
2023/03/15 04:41:36;;;;;;;0.10;0.10;;;;;;;4.08;66.78;100739.13;7360310;19;20110;-62
2023/03/15 04:44:02;;;;;;;0.10;0.10;;;;;;;4.03;66.74;100735.66;7358064;19;20970;-62
2023/03/15 04:46:29;;;;;;;0.00;0.00;;;;;;;4.11;66.62;100752.06;7359947;19;20026;-61
2023/03/15 04:48:55;;;;;;;0.00;0.00;;;;;;;4.12;66.95;100748.63;7359523;19;20010;-62
2023/03/15 04:51:20;;;;;;;0.00;0.00;;;;;;;4.13;66.70;100747.75;7356331;19;20009;-62
2023/03/15 04:53:46;;;;;;;0.00;0.00;;;;;;;4.13;66.88;100747.75;7355664;19;20034;-62
2023/03/15 04:56:11;;;;;;;0.00;0.00;;;;;;;4.12;66.82;100738.28;7359452;19;20556;-62
2023/03/15 04:58:36;;;;;;;0.00;0.00;;;;;;;4.16;66.67;100742.63;7362222;19;20010;-62
2023/03/15 05:01:02;;;;;;;0.00;0.00;;;;;;;4.15;66.60;100735.69;7369529;19;20026;-63
2023/03/15 05:03:27;;;;;;;0.10;0.10;;;;;;;4.17;66.74;100744.34;7365969;19;20014;-62
2023/03/15 05:05:53;;;;;;;0.00;0.00;;;;;;;4.16;67.01;100738.31;7358736;19;20015;-62
2023/03/15 05:08:18;;;;;;;0.10;0.10;;;;;;;4.19;66.78;100741.75;7356643;19;20010;-63
2023/03/15 05:10:43;;;;;;;0.00;0.00;;;;;;;4.12;66.79;100731.41;7357051;19;20014;-62
2023/03/15 05:13:09;;;;;;;0.00;0.00;;;;;;;4.15;66.91;100735.69;7356653;19;20022;-61
2023/03/15 05:15:34;;;;;;;0.00;0.00;;;;;;;4.21;66.79;100734.84;7356059;19;20011;-62
2023/03/15 05:18:00;;;;;;;0.00;0.00;;;;;;;4.21;66.52;100735.75;7357602;19;20392;-62
2023/03/15 05:20:25;;;;;;;0.00;0.00;;;;;;;4.18;66.77;100729.69;7355664;19;20017;-62
2023/03/15 05:22:54;;;;;;;0.10;0.10;;;;;;;4.23;66.50;100734.03;7358436;19;20025;-62
2023/03/15 05:25:19;;;;;;;0.00;0.00;;;;;;;4.17;66.79;100723.66;7357328;19;20950;-63
2023/03/15 05:27:45;;;;;;;0.00;0.00;;;;;;;4.24;66.62;100733.16;7356069;19;20022;-62
2023/03/15 05:30:11;;;;;;;0.10;0.10;;;;;;;4.25;67.09;100731.44;7357325;19;20014;-62
2023/03/15 05:32:38;;;;;;;0.00;0.00;;;;;;;4.26;66.92;100734.03;7357341;19;20010;-63
2023/03/15 05:35:06;;;;;;;0.00;0.00;;;;;;;4.29;67.22;100728.00;7355217;19;20049;-63
2023/03/15 05:37:32;;;;;;;;;;;;;;;4.32;65.99;100728.03;7359005;19;20042;-63
2023/03/15 05:39:58;;;;;;;0.00;0.00;;;;;;;4.29;67.06;100738.34;7356961;19;19982;-62
2023/03/15 05:42:28;;;;;;;0.03;0.03;;;;;;;4.28;66.97;100727.13;7358058;19;20017;-62
2023/03/15 05:44:54;;;;;;;0.10;0.10;;;;;;;4.29;66.82;100731.44;7354614;19;20410;-62
2023/03/15 05:47:20;;;;;;;0.00;0.00;;;;;;;4.22;66.75;100719.38;7356673;19;20105;-63
2023/03/15 05:49:46;;;;;;;0.00;0.00;;;;;;;4.18;67.36;100709.88;7355525;19;20007;-63
2023/03/15 05:52:12;;;;;;;0.00;0.00;;;;;;;4.30;67.06;100733.16;7355865;19;20381;-62
2023/03/15 05:54:37;;;;;;;0.03;0.03;;;;;;;4.31;67.44;100722.00;7352994;19;20010;-63
2023/03/15 05:57:03;;;;;;;0.00;0.00;;;;;;;4.32;67.49;100722.84;7357380;19;20007;-62
2023/03/15 05:59:28;;;;;;;0.00;0.00;;;;;;;4.33;67.13;100724.56;7358611;19;20491;-62
2023/03/15 06:01:54;;;;;;;0.10;0.10;;;;;;;4.33;67.39;100730.59;7354721;19;20745;-63
2023/03/15 06:04:19;;;;;;;0.08;0.08;;;;;;;4.34;67.60;100727.16;7357601;19;20015;-62
2023/03/15 06:06:44;;;;;;;0.00;0.00;;;;;;;4.35;67.26;100723.72;7355500;19;20011;-63
2023/03/15 06:09:10;;;;;;;0.00;0.00;;;;;;;4.30;67.46;100707.31;7356236;19;20592;-63
2023/03/15 06:11:35;;;;;;;0.08;0.08;;;;;;;4.37;67.46;100706.50;7355594;19;20026;-63
2023/03/15 06:14:01;;;;;;;0.00;0.00;;;;;;;4.31;67.58;100690.97;7347846;19;20022;-62
2023/03/15 06:16:27;;;;;;;0.00;0.00;;;;;;;4.40;67.66;100696.13;7355644;19;20462;-63
2023/03/15 06:18:52;;;;;;;0.00;0.00;;;;;;;4.40;67.46;100688.38;7357439;19;20086;-62
2023/03/15 06:21:18;;;;;;;0.00;0.00;;;;;;;4.41;67.74;100687.56;7354504;19;20446;-63
2023/03/15 06:23:43;;;;;;;0.10;0.10;;;;;;;4.43;67.67;100687.53;7356044;19;20028;-62
2023/03/15 06:26:09;;;;;;;0.00;0.00;;;;;;;4.42;67.49;100681.50;7351932;19;20014;-62
2023/03/15 06:28:34;;;;;;;0.00;0.00;;;;;;;4.45;67.60;100682.38;7354342;19;20014;-62
2023/03/15 06:31:10;;;;;;;0.10;0.10;;;;;;;4.40;67.69;100666.84;7355370;19;21685;-62
2023/03/15 06:33:37;;;;;;;0.00;0.00;;;;;;;4.29;67.72;100640.97;7357053;19;20035;-62
2023/03/15 06:36:03;;;;;;;0.00;0.00;;;;;;;4.05;67.99;100596.97;7354034;19;20026;-60
2023/03/15 06:38:30;;;;;;;0.08;0.08;;;;;;;4.47;67.53;100662.56;7355054;19;20031;-62
2023/03/15 06:40:57;;;;;;;0.00;0.00;;;;;;;4.47;67.79;100657.41;7354287;19;20042;-62
2023/03/15 06:43:23;;;;;;;;;;;;;;;4.53;66.67;100654.81;7356917;19;20018;-63
2023/03/15 06:45:48;;;;;;;0.00;0.00;;;;;;;4.51;67.74;100656.50;7354993;19;19919;-62
2023/03/15 06:48:14;;;;;;;0.00;0.00;;;;;;;4.53;67.90;100654.81;7353095;19;20892;-62
2023/03/15 06:50:39;;;;;;;0.00;0.00;;;;;;;4.53;67.53;100652.22;7354632;19;20018;-63
2023/03/15 06:53:05;;;;;;;0.00;0.00;;;;;;;4.53;67.85;100650.50;7353550;19;20103;-63
2023/03/15 06:55:31;;;;;;;0.00;0.00;;;;;;;4.50;67.92;100645.31;7353204;19;20491;-63
2023/03/15 06:57:56;;;;;;;0.10;0.10;;;;;;;4.56;67.52;100654.78;7343885;19;20790;-62
2023/03/15 07:00:22;;;;;;;0.00;0.00;;;;;;;4.57;67.70;100643.63;7350398;19;20010;-62
2023/03/15 07:02:48;;;;;;;0.00;0.00;;;;;;;4.59;67.96;100645.31;7350112;19;20010;-63
2023/03/15 07:05:13;;;;;;;0.00;0.00;;;;;;;4.62;67.71;100644.47;7351133;19;20019;-62
2023/03/15 07:07:39;;;;;;;0.03;0.03;;;;;;;4.22;67.80;100577.22;7354215;19;20018;-62
2023/03/15 07:10:05;;;;;;;0.10;0.10;;;;;;;4.67;67.13;100641.03;7353674;19;20019;-63
2023/03/15 07:12:30;;;;;;;0.00;0.00;;;;;;;4.68;66.59;100635.00;7352541;19;20018;-62
2023/03/15 07:14:55;;;;;;;0.00;0.00;;;;;;;4.67;66.57;100633.28;7349730;19;20021;-62
2023/03/15 07:17:23;;;;;;;0.00;0.00;;;;;;;4.74;65.97;100628.94;7349204;19;20007;-63
2023/03/15 07:19:49;;;;;;;;;;;;;;;4.79;66.03;100627.22;7350760;19;20018;-63
2023/03/15 07:22:14;;;;;;;0.00;0.00;;;;;;;4.79;66.24;100621.19;7350535;19;19978;-63
2023/03/15 07:24:40;;;;;;;0.00;0.00;;;;;;;4.81;65.94;100617.72;7347803;19;20006;-62
2023/03/15 07:27:05;;;;;;;0.00;0.00;;;;;;;4.74;66.08;100597.91;7349704;19;20026;-62
2023/03/15 07:29:30;;;;;;;0.00;0.00;;;;;;;4.87;66.02;100615.16;7350571;19;20097;-62
2023/03/15 07:31:56;;;;;;;0.00;0.00;;;;;;;4.91;65.71;100616.00;7351345;19;20019;-62
2023/03/15 07:34:22;;;;;;;0.10;0.10;;;;;;;4.95;66.14;100617.72;7348634;19;20266;-63
2023/03/15 07:36:47;;;;;;;0.00;0.00;;;;;;;4.86;66.23;100600.47;7349367;19;21138;-63
2023/03/15 07:39:13;;;;;;;0.00;0.00;;;;;;;5.04;66.08;100622.03;7351375;19;20006;-62
2023/03/15 07:41:38;;;;;;;0.00;0.00;;;;;;;5.09;66.21;100621.16;7352878;19;20014;-63
2023/03/15 07:44:04;;;;;;;0.10;0.10;;;;;;;5.15;66.25;100615.09;7357348;19;20014;-62
2023/03/15 07:46:29;;;;;;;0.00;0.00;;;;;;;5.21;65.98;100609.91;7357731;19;20043;-63
2023/03/15 07:48:55;;;;;;;0.00;0.00;;;;;;;5.27;66.27;100609.03;7347693;19;20006;-62
2023/03/15 07:51:21;;;;;;;0.00;0.00;;;;;;;5.32;65.98;100618.53;7358613;19;20615;-63
2023/03/15 07:53:46;;;;;;;0.00;0.00;;;;;;;5.38;66.26;100613.34;7315805;19;20058;-62
2023/03/15 07:56:12;;;;;;;0.00;0.00;;;;;;;5.44;66.14;100612.47;7348655;19;20048;-63
2023/03/15 07:58:37;;;;;;;0.00;0.00;;;;;;;5.49;66.15;100615.88;7336732;19;20515;-62
2023/03/15 08:01:02;;;;;;;0.00;0.00;;;;;;;5.55;66.24;100615.00;7347101;19;20815;-62
2023/03/15 08:03:28;;;;;;;0.05;0.05;;;;;;;5.60;66.15;100613.25;7350630;19;20014;-62
2023/03/15 08:05:54;;;;;;;0.00;0.00;;;;;;;5.58;66.49;100607.25;7349241;19;20644;-63
2023/03/15 08:08:19;;;;;;;0.00;0.00;;;;;;;5.69;66.30;100603.72;7351004;19;20507;-62
2023/03/15 08:10:45;;;;;;;0.00;0.00;;;;;;;5.75;66.55;100604.56;7340232;19;20067;-63
2023/03/15 08:13:11;;;;;;;0.00;0.00;;;;;;;5.79;66.21;100612.31;7344056;19;20104;-62
2023/03/15 08:15:37;;;;;;;0.00;0.00;;;;;;;5.83;66.25;100616.63;7342369;19;20718;-63
2023/03/15 08:18:02;;;;;;;0.00;0.00;;;;;;;5.83;65.91;100601.06;7348706;19;20031;-62
2023/03/15 08:20:28;;;;;;;0.00;0.00;;;;;;;5.82;66.36;100591.56;7347707;19;20018;-63
2023/03/15 08:22:54;;;;;;;0.00;0.00;;;;;;;6.00;66.28;100613.13;7349672;19;20014;-63
2023/03/15 08:25:22;;;;;;;0.00;0.00;;;;;;;5.91;65.99;100583.78;7346993;19;20015;-63
2023/03/15 08:27:49;;;;;;;0.00;0.00;;;;;;;5.50;66.44;100503.66;7348896;19;20014;-62
2023/03/15 08:30:16;;;;;;;0.00;0.00;;;;;;;6.11;66.17;100595.75;7349725;19;20018;-62
2023/03/15 08:32:44;;;;;;;0.00;0.00;;;;;;;6.15;66.27;100597.47;7345495;19;20448;-63
2023/03/15 08:35:11;;;;;;;0.00;0.00;;;;;;;5.73;66.29;100521.69;7349582;19;20820;-63
2023/03/15 08:37:37;;;;;;;0.10;0.10;;;;;;;6.23;66.59;100595.66;7342476;19;20010;-61
2023/03/15 08:40:09;;;;;;;0.00;0.00;;;;;;;6.26;66.44;100595.66;7344812;19;20269;-63
2023/03/15 08:42:36;;;;;;;0.00;0.00;;;;;;;6.29;66.38;100593.06;7345539;19;20173;-63
2023/03/15 08:45:06;;;;;;;0.00;0.00;;;;;;;6.34;66.66;100587.84;7337277;19;20051;-62
2023/03/15 08:47:35;;;;;;;0.10;0.10;;;;;;;6.35;66.72;100584.38;7339376;19;20495;-63
2023/03/15 08:50:07;;;;;;;0.08;0.08;;;;;;;6.41;66.71;100585.19;7345616;19;20046;-63
2023/03/15 08:52:32;;;;;;;0.10;0.10;;;;;;;6.42;66.79;100581.72;7341970;19;20021;-62
2023/03/15 08:54:58;;;;;;;0.00;0.00;;;;;;;6.45;66.48;100576.50;7345326;19;21286;-63
2023/03/15 08:57:28;;;;;;;0.00;0.00;;;;;;;6.48;66.81;100581.66;7342471;19;20982;-63
2023/03/15 08:59:54;;;;;;;0.03;0.03;;;;;;;6.47;66.60;100574.75;7346107;19;20027;-63
2023/03/15 09:02:21;;;;;;;0.08;0.08;;;;;;;6.50;66.64;100574.75;7342482;19;20023;-63
2023/03/15 09:04:47;;;;;;;0.00;0.00;;;;;;;6.53;66.67;100581.63;7342635;19;20010;-63
2023/03/15 09:07:14;;;;;;;0.10;0.10;;;;;;;6.55;66.77;100576.44;7342698;19;20013;-63
2023/03/15 09:09:39;;;;;;;0.00;0.00;;;;;;;6.57;66.74;100579.88;7335650;19;20014;-63
2023/03/15 09:12:05;;;;;;;0.00;0.00;;;;;;;6.59;66.87;100575.50;7343918;19;21196;-63
2023/03/15 09:14:30;;;;;;;0.00;0.00;;;;;;;6.62;67.28;100572.91;7342019;19;20027;-63
2023/03/15 09:16:56;;;;;;;0.10;0.10;;;;;;;6.64;67.40;100578.94;7343226;19;20136;-63
2023/03/15 09:19:21;;;;;;;0.00;0.00;;;;;;;6.65;67.08;100568.56;7343363;19;20107;-62
2023/03/15 09:21:47;;;;;;;0.00;0.00;;;;;;;6.65;67.15;100568.56;7345251;19;20038;-63
2023/03/15 09:24:12;;;;;;;0.00;0.00;;;;;;;6.68;67.08;100565.91;7342873;19;20014;-62
2023/03/15 09:26:38;;;;;;;0.00;0.00;;;;;;;6.72;67.38;100558.97;7344077;19;20025;-63
2023/03/15 09:29:03;;;;;;;0.00;0.00;;;;;;;6.74;67.69;100557.22;7342997;19;20042;-63
2023/03/15 09:31:30;;;;;;;0.00;0.00;;;;;;;6.68;67.90;100552.09;7343227;19;20418;-63
2023/03/15 09:33:57;;;;;;;0.10;0.10;;;;;;;6.79;67.60;100560.63;7340020;19;20007;-63
2023/03/15 09:36:23;;;;;;;0.00;0.00;;;;;;;6.81;67.97;100553.72;7342826;19;20382;-62
2023/03/15 09:38:48;;;;;;;0.00;0.00;;;;;;;6.84;67.37;100553.66;7345368;19;20011;-63
2023/03/15 09:41:26;;;;;;;0.05;0.05;;;;;;;6.85;67.55;100545.03;7342963;19;20011;-62
2023/03/15 09:44:13;;;;;;;0.00;0.00;;;;;;;6.84;67.58;100526.84;7340546;19;20010;-62
2023/03/15 09:46:51;;;;;;;0.10;0.10;;;;;;;6.95;67.61;100536.25;7342145;19;20597;-63
2023/03/15 09:49:26;;;;;;;0.00;0.00;;;;;;;6.98;67.37;100536.22;7343136;19;20018;-62
2023/03/15 09:52:01;;;;;;;0.00;0.00;;;;;;;7.00;67.94;100531.88;7343343;19;20006;-62
2023/03/15 09:54:45;;;;;;;0.00;0.00;;;;;;;7.02;67.73;100527.53;7341212;19;20006;-63
2023/03/15 09:57:37;;;;;;;0.10;0.10;;;;;;;7.06;67.10;100527.50;7341129;19;20006;-63
2023/03/15 10:00:10;;;;;;;0.00;0.00;;;;;;;7.03;68.01;100518.00;7241615;19;2004393;-63
2023/03/15 10:02:42;;;;;;;0.00;0.00;;;;;;;7.00;67.70;100508.53;7342063;19;20016;-62
2023/03/15 10:05:21;;;;;;;0.10;0.10;;;;;;;7.08;67.46;100517.94;7338829;19;21066;-62
2023/03/15 10:07:46;;;;;;;0.00;0.00;;;;;;;7.03;67.90;100508.47;7339579;19;20451;-63
2023/03/15 10:10:23;;;;;;;0.00;0.00;;;;;;;6.93;67.71;100496.47;7342385;19;20035;-63
2023/03/15 10:13:01;;;;;;;0.00;0.00;;;;;;;6.93;67.06;100487.81;7340164;19;20018;-63
2023/03/15 10:15:29;;;;;;;0.00;0.00;;;;;;;7.00;67.23;100492.94;7340527;19;20019;-62
2023/03/15 10:17:57;;;;;;;0.00;0.00;;;;;;;6.98;67.83;100499.88;7342371;19;20025;-62
2023/03/15 10:20:28;;;;;;;0.00;0.00;;;;;;;6.97;67.40;100487.78;7343909;19;20093;-62
2023/03/15 10:23:02;;;;;;;0.10;0.10;;;;;;;6.82;68.27;100455.94;7345864;19;20891;-62
2023/03/15 10:25:29;;;;;;;0.08;0.08;;;;;;;6.92;67.53;100486.97;7333799;19;20007;-62
2023/03/15 10:28:07;;;;;;;0.00;0.00;;;;;;;6.87;68.18;100470.59;7334037;19;20077;-62
2023/03/15 10:30:35;;;;;;;0.00;0.00;;;;;;;6.92;68.44;100465.34;7348347;19;20021;-62
2023/03/15 10:33:04;;;;;;;0.10;0.10;;;;;;;6.90;68.83;100465.38;7346464;19;20010;-62
2023/03/15 10:35:30;;;;;;;0.10;0.10;;;;;;;6.88;69.02;100461.91;7340764;19;20982;-62
2023/03/15 10:37:56;;;;;;;0.00;0.00;;;;;;;6.85;69.07;100450.72;7345152;19;20010;-62
2023/03/15 10:40:45;;;;;;;0.05;0.05;;;;;;;6.96;68.07;100462.69;7346641;19;20113;-62
2023/03/15 10:43:19;;;;;;;0.10;0.10;;;;;;;6.95;69.13;100457.53;7347320;19;20699;-62
2023/03/15 10:46:03;;;;;;;0.00;0.00;;;;;;;6.98;68.92;100458.31;7346774;19;20848;-62
2023/03/15 10:48:50;;;;;;;0.10;0.10;;;;;;;6.96;68.93;100441.94;7346139;19;20006;-62
2023/03/15 10:51:24;;;;;;;0.00;0.00;;;;;;;7.03;68.89;100446.16;7346612;19;20010;-62
2023/03/15 10:53:54;;;;;;;0.00;0.00;;;;;;;7.07;69.50;100446.13;7345118;19;20568;-62
2023/03/15 10:56:33;;;;;;;0.00;0.00;;;;;;;7.09;69.95;100431.38;7345577;19;20535;-62
2023/03/15 10:59:00;;;;;;;0.05;0.05;;;;;;;7.11;69.72;100424.44;7345004;19;20023;-62
2023/03/15 11:01:36;;;;;;;0.00;0.00;;;;;;;7.16;68.41;100426.09;7347223;19;20022;-61
2023/03/15 11:04:15;;;;;;;0.00;0.00;;;;;;;7.25;68.79;100420.78;7344962;19;20002;-62
2023/03/15 11:06:46;;;;;;;0.03;0.03;;;;;;;7.16;69.20;100391.50;7346023;19;20028;-62
2023/03/15 11:09:22;;;;;;;0.03;0.03;;;;;;;7.34;68.89;100404.19;7345533;19;20454;-62
2023/03/15 11:12:02;;;;;;;0.10;0.10;;;;;;;7.31;69.40;100383.47;7344558;19;20010;-62
2023/03/15 11:14:35;;;;;;;0.10;0.10;;;;;;;7.41;69.07;100394.59;7344129;19;20014;-62
2023/03/15 11:17:03;;;;;;;0.00;0.00;;;;;;;7.43;69.55;100387.63;7350577;19;20010;-62
2023/03/15 11:19:31;;;;;;;0.00;0.00;;;;;;;7.46;69.67;100385.00;7351815;19;20022;-61
2023/03/15 11:21:59;;;;;;;0.00;0.00;;;;;;;7.50;69.93;100379.72;7350856;19;20337;-62
2023/03/15 11:24:29;;;;;;;0.00;0.00;;;;;;;7.53;69.89;100379.66;7352373;19;20100;-61
2023/03/15 11:27:00;;;;;;;0.00;0.00;;;;;;;7.59;69.41;100367.47;7351357;19;20003;-61
2023/03/15 11:29:37;;;;;;;0.00;0.00;;;;;;;7.65;69.45;100351.75;7351910;19;20011;-61
2023/03/15 11:32:14;;;;;;;0.00;0.00;;;;;;;7.69;69.48;100351.69;7349951;19;20017;-61
2023/03/15 11:34:52;;;;;;;;;;;;;;;7.75;68.77;100350.72;7353889;19;20093;-61
2023/03/15 11:37:27;;;;;;;0.00;0.00;;;;;;;7.78;69.74;100337.69;7353559;19;20148;-61